sensor_id;sensor_type;location;lat;lon;timestamp;pressure;altitude;pressure_sealevel;temperature;humidity
28935;BME280;16044;52.726;-2.108;2023-06-14T00:02:06;100858.53;;;16.66;48.58
28935;BME280;16044;52.726;-2.108;2023-06-14T00:04:37;100857.91;;;16.64;48.04
28935;BME280;16044;52.726;-2.108;2023-06-14T00:07:08;100858.31;;;16.61;47.90
28935;BME280;16044;52.726;-2.108;2023-06-14T00:09:43;100857.47;;;16.60;47.69
28935;BME280;16044;52.726;-2.108;2023-06-14T00:12:14;100857.25;;;16.55;47.90
28935;BME280;16044;52.726;-2.108;2023-06-14T00:14:46;100866.09;;;16.50;47.80
28935;BME280;16044;52.726;-2.108;2023-06-14T00:17:16;100861.00;;;16.47;48.11
28935;BME280;16044;52.726;-2.108;2023-06-14T00:19:48;100861.84;;;16.41;48.08
28935;BME280;16044;52.726;-2.108;2023-06-14T00:22:19;100861.22;;;16.39;48.40
28935;BME280;16044;52.726;-2.108;2023-06-14T00:24:54;100865.19;;;16.30;48.58
28935;BME280;16044;52.726;-2.108;2023-06-14T00:27:27;100865.19;;;16.30;48.50
28935;BME280;16044;52.726;-2.108;2023-06-14T00:29:58;100867.69;;;16.25;48.76
28935;BME280;16044;52.726;-2.108;2023-06-14T00:32:29;100875.00;;;16.17;48.62
28935;BME280;16044;52.726;-2.108;2023-06-14T00:35:00;100880.25;;;16.12;48.60
28935;BME280;16044;52.726;-2.108;2023-06-14T00:37:31;100874.94;;;16.04;49.01
28935;BME280;16044;52.726;-2.108;2023-06-14T00:40:05;100879.34;;;15.98;48.86
28935;BME280;16044;52.726;-2.108;2023-06-14T00:42:37;100868.38;;;15.92;48.92
28935;BME280;16044;52.726;-2.108;2023-06-14T00:45:09;100871.72;;;15.87;49.26
28935;BME280;16044;52.726;-2.108;2023-06-14T00:47:41;100875.47;;;15.79;49.60
28935;BME280;16044;52.726;-2.108;2023-06-14T00:50:14;100879.16;;;15.72;49.71
28935;BME280;16044;52.726;-2.108;2023-06-14T00:52:45;100875.34;;;15.66;50.25
28935;BME280;16044;52.726;-2.108;2023-06-14T00:55:18;100884.34;;;15.60;50.34
28935;BME280;16044;52.726;-2.108;2023-06-14T00:57:49;100887.66;;;15.55;50.74
28935;BME280;16044;52.726;-2.108;2023-06-14T01:00:21;100891.41;;;15.48;51.03
28935;BME280;16044;52.726;-2.108;2023-06-14T01:02:51;100884.84;;;15.42;51.19
28935;BME280;16044;52.726;-2.108;2023-06-14T01:05:23;100890.91;;;15.37;51.50
28935;BME280;16044;52.726;-2.108;2023-06-14T01:08:05;100888.09;;;15.24;52.58
28935;BME280;16044;52.726;-2.108;2023-06-14T01:10:53;100901.09;;;15.22;52.28
28935;BME280;16044;52.726;-2.108;2023-06-14T01:13:36;100907.72;;;15.13;52.92
28935;BME280;16044;52.726;-2.108;2023-06-14T01:16:10;100893.81;;;15.08;53.41
28935;BME280;16044;52.726;-2.108;2023-06-14T01:18:41;100890.41;;;14.99;53.96
28935;BME280;16044;52.726;-2.108;2023-06-14T01:21:21;100890.31;;;14.92;54.22
28935;BME280;16044;52.726;-2.108;2023-06-14T01:23:55;100891.31;;;14.85;54.79
28935;BME280;16044;52.726;-2.108;2023-06-14T01:26:26;100886.81;;;14.77;55.45
28935;BME280;16044;52.726;-2.108;2023-06-14T01:28:57;100888.91;;;14.75;55.41
28935;BME280;16044;52.726;-2.108;2023-06-14T01:31:29;100896.81;;;14.70;55.33
28935;BME280;16044;52.726;-2.108;2023-06-14T01:34:07;100896.94;;;14.61;55.96
28935;BME280;16044;52.726;-2.108;2023-06-14T01:36:41;100897.50;;;14.57;55.97
28935;BME280;16044;52.726;-2.108;2023-06-14T01:39:16;100900.25;;;14.42;58.75
28935;BME280;16044;52.726;-2.108;2023-06-14T01:41:49;100898.38;;;14.42;56.62
28935;BME280;16044;52.726;-2.108;2023-06-14T01:44:20;100898.75;;;14.39;56.44
28935;BME280;16044;52.726;-2.108;2023-06-14T01:46:53;100894.91;;;14.34;56.63
28935;BME280;16044;52.726;-2.108;2023-06-14T01:49:24;100891.44;;;14.25;57.55
28935;BME280;16044;52.726;-2.108;2023-06-14T01:51:56;100883.66;;;14.22;57.26
28935;BME280;16044;52.726;-2.108;2023-06-14T01:54:29;100889.66;;;14.17;57.53
28935;BME280;16044;52.726;-2.108;2023-06-14T01:57:00;100889.41;;;14.12;57.84
28935;BME280;16044;52.726;-2.108;2023-06-14T01:59:31;100893.34;;;14.10;58.07
28935;BME280;16044;52.726;-2.108;2023-06-14T02:02:02;100888.00;;;14.01;58.69
28935;BME280;16044;52.726;-2.108;2023-06-14T02:04:34;100894.00;;;13.97;59.33
28935;BME280;16044;52.726;-2.108;2023-06-14T02:07:05;100896.84;;;13.89;60.49
28935;BME280;16044;52.726;-2.108;2023-06-14T02:09:39;100896.56;;;13.83;61.25
28935;BME280;16044;52.726;-2.108;2023-06-14T02:12:10;100899.88;;;13.79;61.29
28935;BME280;16044;52.726;-2.108;2023-06-14T02:14:41;100895.53;;;13.70;62.17
28935;BME280;16044;52.726;-2.108;2023-06-14T02:17:12;100901.25;;;13.60;63.15
28935;BME280;16044;52.726;-2.108;2023-06-14T02:19:43;100902.50;;;13.57;62.99
28935;BME280;16044;52.726;-2.108;2023-06-14T02:22:14;100895.91;;;13.52;63.62
28935;BME280;16044;52.726;-2.108;2023-06-14T02:24:47;100902.94;;;13.46;63.88
28935;BME280;16044;52.726;-2.108;2023-06-14T02:27:28;100903.00;;;13.38;64.81
28935;BME280;16044;52.726;-2.108;2023-06-14T02:29:58;100906.66;;;13.30;65.09
28935;BME280;16044;52.726;-2.108;2023-06-14T02:32:29;100901.94;;;13.24;66.28
28935;BME280;16044;52.726;-2.108;2023-06-14T02:35:01;100904.16;;;13.20;66.57
28935;BME280;16044;52.726;-2.108;2023-06-14T02:37:32;100902.19;;;13.14;66.92
28935;BME280;16044;52.726;-2.108;2023-06-14T02:40:07;100899.50;;;13.06;67.38
28935;BME280;16044;52.726;-2.108;2023-06-14T02:42:39;100893.97;;;12.99;67.67
28935;BME280;16044;52.726;-2.108;2023-06-14T02:45:10;100891.59;;;12.96;67.87
28935;BME280;16044;52.726;-2.108;2023-06-14T02:47:40;100895.41;;;12.87;68.86
28935;BME280;16044;52.726;-2.108;2023-06-14T02:50:11;100894.25;;;12.81;69.46
28935;BME280;16044;52.726;-2.108;2023-06-14T02:52:43;100893.59;;;12.79;69.17
28935;BME280;16044;52.726;-2.108;2023-06-14T02:55:17;100894.34;;;12.73;69.64
28935;BME280;16044;52.726;-2.108;2023-06-14T02:57:48;100901.16;;;12.69;69.85
28935;BME280;16044;52.726;-2.108;2023-06-14T03:00:20;100903.88;;;12.69;69.27
28935;BME280;16044;52.726;-2.108;2023-06-14T03:02:51;100913.44;;;12.65;69.98
28935;BME280;16044;52.726;-2.108;2023-06-14T03:05:22;100904.13;;;12.59;70.63
28935;BME280;16044;52.726;-2.108;2023-06-14T03:07:55;100900.75;;;12.57;70.41
28935;BME280;16044;52.726;-2.108;2023-06-14T03:10:28;100901.44;;;12.51;71.09
28935;BME280;16044;52.726;-2.108;2023-06-14T03:12:59;100905.56;;;12.47;71.60
28935;BME280;16044;52.726;-2.108;2023-06-14T03:15:30;100901.66;;;12.41;72.12
28935;BME280;16044;52.726;-2.108;2023-06-14T03:18:02;100902.88;;;12.39;72.54
28935;BME280;16044;52.726;-2.108;2023-06-14T03:20:35;100901.38;;;12.36;72.24
28935;BME280;16044;52.726;-2.108;2023-06-14T03:23:06;100903.22;;;12.36;72.09
28935;BME280;16044;52.726;-2.108;2023-06-14T03:25:39;100903.78;;;12.31;72.39
28935;BME280;16044;52.726;-2.108;2023-06-14T03:28:10;100904.28;;;12.26;73.00
28935;BME280;16044;52.726;-2.108;2023-06-14T03:30:41;100902.94;;;12.31;72.09
28935;BME280;16044;52.726;-2.108;2023-06-14T03:33:12;100903.28;;;12.27;72.99
28935;BME280;16044;52.726;-2.108;2023-06-14T03:35:44;100900.56;;;12.27;72.53
28935;BME280;16044;52.726;-2.108;2023-06-14T03:38:14;100905.00;;;12.20;73.41
28935;BME280;16044;52.726;-2.108;2023-06-14T03:40:48;100901.63;;;12.18;73.55
28935;BME280;16044;52.726;-2.108;2023-06-14T03:43:19;100898.41;;;12.15;73.76
28935;BME280;16044;52.726;-2.108;2023-06-14T03:45:49;100904.19;;;12.12;74.43
28935;BME280;16044;52.726;-2.108;2023-06-14T03:48:20;100908.13;;;12.09;74.66
28935;BME280;16044;52.726;-2.108;2023-06-14T03:50:51;100912.72;;;12.08;74.32
28935;BME280;16044;52.726;-2.108;2023-06-14T03:53:27;100913.06;;;12.05;74.83
28935;BME280;16044;52.726;-2.108;2023-06-14T03:56:00;100911.56;;;12.03;74.71
28935;BME280;16044;52.726;-2.108;2023-06-14T03:58:31;100910.72;;;12.02;74.65
28935;BME280;16044;52.726;-2.108;2023-06-14T04:01:02;100911.91;;;12.00;74.93
28935;BME280;16044;52.726;-2.108;2023-06-14T04:03:34;100911.91;;;12.00;75.02
28935;BME280;16044;52.726;-2.108;2023-06-14T04:06:05;100913.59;;;12.01;74.21
28935;BME280;16044;52.726;-2.108;2023-06-14T04:08:36;100907.84;;;11.96;75.59
28935;BME280;16044;52.726;-2.108;2023-06-14T04:11:09;100909.03;;;11.93;75.82
28935;BME280;16044;52.726;-2.108;2023-06-14T04:13:40;100904.44;;;11.94;76.63
28935;BME280;16044;52.726;-2.108;2023-06-14T04:16:11;100909.03;;;11.93;76.81
28935;BME280;16044;52.726;-2.108;2023-06-14T04:18:42;100901.75;;;11.94;76.96
28935;BME280;16044;52.726;-2.108;2023-06-14T04:21:13;100907.84;;;11.96;77.07
28935;BME280;16044;52.726;-2.108;2023-06-14T04:23:47;100911.22;;;11.98;76.88
28935;BME280;16044;52.726;-2.108;2023-06-14T04:26:22;100911.22;;;11.98;76.79
28935;BME280;16044;52.726;-2.108;2023-06-14T04:28:57;100908.84;;;12.03;76.55
28935;BME280;16044;52.726;-2.108;2023-06-14T04:31:29;100906.28;;;12.01;76.92
28935;BME280;16044;52.726;-2.108;2023-06-14T04:34:00;100903.91;;;12.06;76.92
28935;BME280;16044;52.726;-2.108;2023-06-14T04:36:33;100903.53;;;12.09;77.16
28935;BME280;16044;52.726;-2.108;2023-06-14T04:39:04;100902.84;;;12.16;76.56
28935;BME280;16044;52.726;-2.108;2023-06-14T04:41:37;100892.81;;;12.16;76.88
28935;BME280;16044;52.726;-2.108;2023-06-14T04:44:08;100911.13;;;12.22;76.57
28935;BME280;16044;52.726;-2.108;2023-06-14T04:46:39;100911.63;;;12.26;76.10
28935;BME280;16044;52.726;-2.108;2023-06-14T04:49:15;100909.72;;;12.35;75.28
28935;BME280;16044;52.726;-2.108;2023-06-14T04:51:46;100912.06;;;12.38;75.18
28935;BME280;16044;52.726;-2.108;2023-06-14T04:54:18;100909.16;;;12.39;75.22
28935;BME280;16044;52.726;-2.108;2023-06-14T04:56:51;100913.75;;;12.39;75.55
28935;BME280;16044;52.726;-2.108;2023-06-14T04:59:23;100918.66;;;12.43;75.88
28935;BME280;16044;52.726;-2.108;2023-06-14T05:01:54;100916.69;;;12.60;75.84
28935;BME280;16044;52.726;-2.108;2023-06-14T05:04:25;100912.41;;;12.89;75.46
28935;BME280;16044;52.726;-2.108;2023-06-14T05:06:56;100910.28;;;13.60;73.98
28935;BME280;16044;52.726;-2.108;2023-06-14T05:09:28;100907.63;;;14.27;71.98
28935;BME280;16044;52.726;-2.108;2023-06-14T05:12:01;100915.50;;;14.88;70.39
28935;BME280;16044;52.726;-2.108;2023-06-14T05:14:35;100917.50;;;15.50;68.43
28935;BME280;16044;52.726;-2.108;2023-06-14T05:17:06;100921.91;;;16.14;66.33
28935;BME280;16044;52.726;-2.108;2023-06-14T05:19:37;100918.31;;;16.69;63.58
28935;BME280;16044;52.726;-2.108;2023-06-14T05:22:08;100910.00;;;17.24;61.35
28935;BME280;16044;52.726;-2.108;2023-06-14T05:24:39;100916.28;;;17.78;59.31
28935;BME280;16044;52.726;-2.108;2023-06-14T05:27:12;100902.69;;;18.23;57.43
28935;BME280;16044;52.726;-2.108;2023-06-14T05:29:43;100900.38;;;18.65;55.18
28935;BME280;16044;52.726;-2.108;2023-06-14T05:32:13;100902.25;;;19.03;53.12
28935;BME280;16044;52.726;-2.108;2023-06-14T05:34:44;100906.69;;;19.29;51.33
28935;BME280;16044;52.726;-2.108;2023-06-14T05:37:15;100903.53;;;19.51;50.29
28935;BME280;16044;52.726;-2.108;2023-06-14T05:39:46;100912.50;;;19.90;49.79
28935;BME280;16044;52.726;-2.108;2023-06-14T05:42:19;100907.41;;;20.12;48.65
28935;BME280;16044;52.726;-2.108;2023-06-14T05:44:50;100911.34;;;20.34;48.79
28935;BME280;16044;52.726;-2.108;2023-06-14T05:47:20;100915.31;;;20.57;47.93
28935;BME280;16044;52.726;-2.108;2023-06-14T05:49:53;100906.19;;;20.87;47.19
28935;BME280;16044;52.726;-2.108;2023-06-14T05:52:24;100905.66;;;20.96;46.05
28935;BME280;16044;52.726;-2.108;2023-06-14T05:54:55;100909.03;;;21.10;46.59
28935;BME280;16044;52.726;-2.108;2023-06-14T05:57:28;100909.78;;;21.41;46.07
28935;BME280;16044;52.726;-2.108;2023-06-14T05:59:59;100908.53;;;21.55;45.32
28935;BME280;16044;52.726;-2.108;2023-06-14T06:02:37;100906.00;;;21.66;45.13
28935;BME280;16044;52.726;-2.108;2023-06-14T06:05:08;100916.44;;;21.87;44.78
28935;BME280;16044;52.726;-2.108;2023-06-14T06:07:39;100917.25;;;21.99;45.06
28935;BME280;16044;52.726;-2.108;2023-06-14T06:10:11;100912.31;;;22.25;45.12
28935;BME280;16044;52.726;-2.108;2023-06-14T06:12:45;100924.75;;;22.39;44.22
28935;BME280;16044;52.726;-2.108;2023-06-14T06:15:19;100917.66;;;22.72;43.90
28935;BME280;16044;52.726;-2.108;2023-06-14T06:17:50;100916.00;;;22.88;42.66
28935;BME280;16044;52.726;-2.108;2023-06-14T06:20:23;100915.41;;;23.15;41.89
28935;BME280;16044;52.726;-2.108;2023-06-14T06:22:57;100916.25;;;23.15;41.45
28935;BME280;16044;52.726;-2.108;2023-06-14T06:25:28;100917.16;;;23.21;40.64
28935;BME280;16044;52.726;-2.108;2023-06-14T06:28:02;100926.00;;;23.35;40.27
28935;BME280;16044;52.726;-2.108;2023-06-14T06:30:33;100920.69;;;23.50;40.52
28935;BME280;16044;52.726;-2.108;2023-06-14T06:33:04;100924.28;;;23.68;39.98
28935;BME280;16044;52.726;-2.108;2023-06-14T06:35:35;100930.41;;;23.87;39.70
28935;BME280;16044;52.726;-2.108;2023-06-14T06:38:05;100934.50;;;24.01;39.78
28935;BME280;16044;52.726;-2.108;2023-06-14T06:40:37;100931.59;;;24.13;39.23
28935;BME280;16044;52.726;-2.108;2023-06-14T06:43:10;100932.09;;;24.10;38.79
28935;BME280;16044;52.726;-2.108;2023-06-14T06:45:44;100922.47;;;24.12;39.30
28935;BME280;16044;52.726;-2.108;2023-06-14T06:48:14;100931.81;;;24.28;39.47
28935;BME280;16044;52.726;-2.108;2023-06-14T06:50:45;100935.81;;;24.38;39.22
28935;BME280;16044;52.726;-2.108;2023-06-14T06:53:16;100938.13;;;24.24;39.31
28935;BME280;16044;52.726;-2.108;2023-06-14T06:56:00;100929.63;;;24.30;38.82
28935;BME280;16044;52.726;-2.108;2023-06-14T06:58:34;100926.84;;;24.30;39.15
28935;BME280;16044;52.726;-2.108;2023-06-14T07:01:05;100929.03;;;24.28;39.65
28935;BME280;16044;52.726;-2.108;2023-06-14T07:03:36;100928.00;;;24.35;39.28
28935;BME280;16044;52.726;-2.108;2023-06-14T07:06:07;100926.13;;;24.40;39.46
28935;BME280;16044;52.726;-2.108;2023-06-14T07:08:38;100937.34;;;24.28;39.93
28935;BME280;16044;52.726;-2.108;2023-06-14T07:11:09;100932.00;;;24.22;39.74
28935;BME280;16044;52.726;-2.108;2023-06-14T07:13:42;100934.50;;;24.01;40.46
28935;BME280;16044;52.726;-2.108;2023-06-14T07:16:13;100924.88;;;23.87;41.02
28935;BME280;16044;52.726;-2.108;2023-06-14T07:18:44;100928.75;;;23.86;40.95
28935;BME280;16044;52.726;-2.108;2023-06-14T07:21:15;100934.44;;;23.79;41.23
28935;BME280;16044;52.726;-2.108;2023-06-14T07:23:46;100933.53;;;23.57;41.67
28935;BME280;16044;52.726;-2.108;2023-06-14T07:26:17;100933.94;;;23.14;42.54
28935;BME280;16044;52.726;-2.108;2023-06-14T07:28:50;100941.34;;;22.97;42.98
28935;BME280;16044;52.726;-2.108;2023-06-14T07:31:21;100943.25;;;22.96;43.25
28935;BME280;16044;52.726;-2.108;2023-06-14T07:33:52;100942.03;;;22.75;44.24
28935;BME280;16044;52.726;-2.108;2023-06-14T07:36:23;100932.25;;;22.85;44.17
28935;BME280;16044;52.726;-2.108;2023-06-14T07:38:54;100941.84;;;22.65;45.06
28935;BME280;16044;52.726;-2.108;2023-06-14T07:41:25;100938.50;;;22.63;44.79
28935;BME280;16044;52.726;-2.108;2023-06-14T07:43:58;100933.34;;;22.55;44.85
28935;BME280;16044;52.726;-2.108;2023-06-14T07:46:30;100934.22;;;22.44;45.57
28935;BME280;16044;52.726;-2.108;2023-06-14T07:49:01;100933.25;;;22.38;45.85
28935;BME280;16044;52.726;-2.108;2023-06-14T07:51:33;100931.44;;;22.44;45.67
28935;BME280;16044;52.726;-2.108;2023-06-14T07:54:04;100933.13;;;22.45;46.00
28935;BME280;16044;52.726;-2.108;2023-06-14T07:56:35;100936.28;;;22.36;45.60
28935;BME280;16044;52.726;-2.108;2023-06-14T07:59:13;100933.03;;;22.39;45.88
28935;BME280;16044;52.726;-2.108;2023-06-14T08:01:43;100938.06;;;22.43;46.40
28935;BME280;16044;52.726;-2.108;2023-06-14T08:04:15;100935.78;;;22.39;46.46
28935;BME280;16044;52.726;-2.108;2023-06-14T08:06:46;100924.97;;;22.50;45.96
28935;BME280;16044;52.726;-2.108;2023-06-14T08:09:16;100933.91;;;22.57;46.47
28935;BME280;16044;52.726;-2.108;2023-06-14T08:11:47;100936.31;;;22.65;46.35
28935;BME280;16044;52.726;-2.108;2023-06-14T08:14:21;100938.09;;;22.71;45.79
28935;BME280;16044;52.726;-2.108;2023-06-14T08:16:52;100940.31;;;22.86;45.93
28935;BME280;16044;52.726;-2.108;2023-06-14T08:19:22;100939.75;;;23.01;46.06
28935;BME280;16044;52.726;-2.108;2023-06-14T08:21:53;100936.94;;;23.13;45.25
28935;BME280;16044;52.726;-2.108;2023-06-14T08:24:25;100937.88;;;23.19;44.75
28935;BME280;16044;52.726;-2.108;2023-06-14T08:26:57;100938.78;;;23.07;44.90
28935;BME280;16044;52.726;-2.108;2023-06-14T08:29:30;100939.38;;;23.09;44.67
28935;BME280;16044;52.726;-2.108;2023-06-14T08:32:02;100940.81;;;23.12;44.82
28935;BME280;16044;52.726;-2.108;2023-06-14T08:34:33;100944.06;;;23.09;44.56
28935;BME280;16044;52.726;-2.108;2023-06-14T08:37:04;100938.88;;;23.12;44.85
28935;BME280;16044;52.726;-2.108;2023-06-14T08:39:35;100934.69;;;23.27;45.20
28935;BME280;16044;52.726;-2.108;2023-06-14T08:42:07;100936.53;;;23.21;45.27
28935;BME280;16044;52.726;-2.108;2023-06-14T08:44:59;100925.47;;;23.38;45.73
28935;BME280;16044;52.726;-2.108;2023-06-14T08:47:31;100932.50;;;23.46;45.64
28935;BME280;16044;52.726;-2.108;2023-06-14T08:50:08;100930.41;;;23.36;44.89
28935;BME280;16044;52.726;-2.108;2023-06-14T08:52:56;100924.97;;;23.41;45.00
28935;BME280;16044;52.726;-2.108;2023-06-14T08:55:31;100933.28;;;23.41;45.09
28935;BME280;16044;52.726;-2.108;2023-06-14T08:58:09;100930.16;;;23.38;45.31
28935;BME280;16044;52.726;-2.108;2023-06-14T09:00:44;100926.34;;;23.39;45.09
28935;BME280;16044;52.726;-2.108;2023-06-14T09:03:16;100927.16;;;23.56;45.03
28935;BME280;16044;52.726;-2.108;2023-06-14T09:05:48;100926.38;;;23.61;45.11
28935;BME280;16044;52.726;-2.108;2023-06-14T09:08:19;100925.44;;;23.72;45.03
28935;BME280;16044;52.726;-2.108;2023-06-14T09:10:50;100923.78;;;23.71;44.81
28935;BME280;16044;52.726;-2.108;2023-06-14T09:13:22;100936.53;;;23.72;45.11
28935;BME280;16044;52.726;-2.108;2023-06-14T09:15:59;100934.34;;;23.74;44.51
28935;BME280;16044;52.726;-2.108;2023-06-14T09:18:35;100925.44;;;23.72;44.45
28935;BME280;16044;52.726;-2.108;2023-06-14T09:21:06;100932.00;;;23.66;44.41
28935;BME280;16044;52.726;-2.108;2023-06-14T09:23:38;100931.06;;;23.77;45.74
28935;BME280;16044;52.726;-2.108;2023-06-14T09:26:10;100932.16;;;23.76;45.24
28935;BME280;16044;52.726;-2.108;2023-06-14T09:28:43;100925.41;;;23.67;44.59
28935;BME280;16044;52.726;-2.108;2023-06-14T09:31:18;100930.84;;;23.79;44.63
28935;BME280;16044;52.726;-2.108;2023-06-14T09:33:50;100931.69;;;23.79;44.89
28935;BME280;16044;52.726;-2.108;2023-06-14T09:36:24;100931.53;;;23.86;44.93
28935;BME280;16044;52.726;-2.108;2023-06-14T09:38:57;100929.50;;;23.81;45.05
28935;BME280;16044;52.726;-2.108;2023-06-14T09:41:32;100934.63;;;23.89;44.89
28935;BME280;16044;52.726;-2.108;2023-06-14T09:44:04;100927.81;;;23.97;45.07
28935;BME280;16044;52.726;-2.108;2023-06-14T09:46:46;100928.38;;;23.99;45.17
28935;BME280;16044;52.726;-2.108;2023-06-14T09:49:17;100923.75;;;24.05;44.63
28935;BME280;16044;52.726;-2.108;2023-06-14T09:51:51;100927.16;;;24.12;44.85
28935;BME280;16044;52.726;-2.108;2023-06-14T09:54:23;100925.44;;;24.28;44.07
28935;BME280;16044;52.726;-2.108;2023-06-14T09:56:55;100924.41;;;24.34;44.47
28935;BME280;16044;52.726;-2.108;2023-06-14T09:59:27;100928.53;;;24.31;44.29
28935;BME280;16044;52.726;-2.108;2023-06-14T10:02:09;100912.03;;;24.42;44.14
28935;BME280;16044;52.726;-2.108;2023-06-14T10:04:53;100919.91;;;24.50;44.09
28935;BME280;16044;52.726;-2.108;2023-06-14T10:07:30;100919.53;;;24.63;43.62
28935;BME280;16044;52.726;-2.108;2023-06-14T10:10:03;100922.28;;;24.63;42.68
28935;BME280;16044;52.726;-2.108;2023-06-14T10:12:34;100922.31;;;24.68;42.54
28935;BME280;16044;52.726;-2.108;2023-06-14T10:15:09;100917.69;;;24.74;42.25
28935;BME280;16044;52.726;-2.108;2023-06-14T10:17:48;100917.34;;;24.70;41.28
28935;BME280;16044;52.726;-2.108;2023-06-14T10:20:27;100917.09;;;24.72;41.11
28935;BME280;16044;52.726;-2.108;2023-06-14T10:23:07;100915.19;;;24.73;41.25
28935;BME280;16044;52.726;-2.108;2023-06-14T10:25:42;100910.41;;;24.68;40.98
28935;BME280;16044;52.726;-2.108;2023-06-14T10:28:18;100916.75;;;24.63;41.52
28935;BME280;16044;52.726;-2.108;2023-06-14T10:31:03;100905.38;;;24.65;41.09
28935;BME280;16044;52.726;-2.108;2023-06-14T10:33:40;100919.97;;;24.55;40.78
28935;BME280;16044;52.726;-2.108;2023-06-14T10:36:27;100913.13;;;24.63;41.19
28935;BME280;16044;52.726;-2.108;2023-06-14T10:38:59;100919.63;;;24.74;40.74
28935;BME280;16044;52.726;-2.108;2023-06-14T10:41:35;100912.81;;;24.86;41.32
28935;BME280;16044;52.726;-2.108;2023-06-14T10:44:34;100913.47;;;24.94;40.02
28935;BME280;16044;52.726;-2.108;2023-06-14T10:47:24;100912.34;;;24.95;39.43
28935;BME280;16044;52.726;-2.108;2023-06-14T10:50:04;100904.66;;;25.02;39.56
28935;BME280;16044;52.726;-2.108;2023-06-14T10:52:39;100901.81;;;24.97;39.77
28935;BME280;16044;52.726;-2.108;2023-06-14T10:55:14;100904.84;;;24.95;39.66
28935;BME280;16044;52.726;-2.108;2023-06-14T10:57:47;100899.94;;;25.02;40.16
28935;BME280;16044;52.726;-2.108;2023-06-14T11:00:22;100891.72;;;25.13;38.86
28935;BME280;16044;52.726;-2.108;2023-06-14T11:06:22;100897.44;;;25.28;38.62
28935;BME280;16044;52.726;-2.108;2023-06-14T11:09:22;100893.56;;;25.34;38.53
28935;BME280;16044;52.726;-2.108;2023-06-14T11:12:06;100889.47;;;25.42;38.54
28935;BME280;16044;52.726;-2.108;2023-06-14T11:14:40;100890.03;;;25.44;38.68
28935;BME280;16044;52.726;-2.108;2023-06-14T11:17:12;100885.94;;;25.52;38.68
28935;BME280;16044;52.726;-2.108;2023-06-14T11:19:44;100890.34;;;25.47;39.13
28935;BME280;16044;52.726;-2.108;2023-06-14T11:22:17;100890.66;;;25.51;39.56
28935;BME280;16044;52.726;-2.108;2023-06-14T11:24:48;100888.19;;;25.55;39.40
28935;BME280;16044;52.726;-2.108;2023-06-14T11:27:18;100883.72;;;25.54;38.95
28935;BME280;16044;52.726;-2.108;2023-06-14T11:29:49;100886.84;;;25.62;38.78
28935;BME280;16044;52.726;-2.108;2023-06-14T11:32:20;100888.28;;;25.70;39.26
28935;BME280;16044;52.726;-2.108;2023-06-14T11:34:51;100884.97;;;25.73;38.69
28935;BME280;16044;52.726;-2.108;2023-06-14T11:37:25;100880.81;;;25.76;38.08
28935;BME280;16044;52.726;-2.108;2023-06-14T11:39:58;100878.84;;;25.71;38.28
28935;BME280;16044;52.726;-2.108;2023-06-14T11:42:30;100877.50;;;25.84;39.07
28935;BME280;16044;52.726;-2.108;2023-06-14T11:45:02;100882.53;;;25.87;38.63
28935;BME280;16044;52.726;-2.108;2023-06-14T11:47:36;100870.16;;;26.00;37.96
28935;BME280;16044;52.726;-2.108;2023-06-14T11:50:09;100881.00;;;26.06;38.25
28935;BME280;16044;52.726;-2.108;2023-06-14T11:52:43;100886.84;;;26.05;37.56
28935;BME280;16044;52.726;-2.108;2023-06-14T11:55:14;100871.88;;;26.11;38.03
28935;BME280;16044;52.726;-2.108;2023-06-14T11:57:46;100868.56;;;26.19;38.60
28935;BME280;16044;52.726;-2.108;2023-06-14T12:00:18;100868.84;;;26.23;37.65
28935;BME280;16044;52.726;-2.108;2023-06-14T12:02:52;100861.91;;;26.25;37.76
28935;BME280;16044;52.726;-2.108;2023-06-14T12:05:25;100859.16;;;26.31;36.92
28935;BME280;16044;52.726;-2.108;2023-06-14T12:08:03;100866.94;;;26.39;37.38
28935;BME280;16044;52.726;-2.108;2023-06-14T12:10:41;100862.53;;;26.43;37.72
28935;BME280;16044;52.726;-2.108;2023-06-14T12:13:13;100880.03;;;26.43;36.97
28935;BME280;16044;52.726;-2.108;2023-06-14T12:15:54;100876.41;;;26.48;36.86
28935;BME280;16044;52.726;-2.108;2023-06-14T12:18:32;100875.91;;;26.56;37.93
28935;BME280;16044;52.726;-2.108;2023-06-14T12:21:05;100868.38;;;26.52;36.80
28935;BME280;16044;52.726;-2.108;2023-06-14T12:23:45;100863.72;;;26.62;36.91
28935;BME280;16044;52.726;-2.108;2023-06-14T12:26:18;100868.38;;;26.57;36.26
28935;BME280;16044;52.726;-2.108;2023-06-14T12:28:51;100875.91;;;26.56;36.23
28935;BME280;16044;52.726;-2.108;2023-06-14T12:31:22;100869.78;;;26.54;36.39
28935;BME280;16044;52.726;-2.108;2023-06-14T12:33:53;100859.53;;;26.65;37.06
28935;BME280;16044;52.726;-2.108;2023-06-14T12:36:25;100854.81;;;26.76;37.04
28935;BME280;16044;52.726;-2.108;2023-06-14T12:38:59;100867.63;;;26.87;36.56
28935;BME280;16044;52.726;-2.108;2023-06-14T12:41:30;100850.41;;;26.90;36.15
28935;BME280;16044;52.726;-2.108;2023-06-14T12:44:01;100853.72;;;26.97;35.60
28935;BME280;16044;52.726;-2.108;2023-06-14T12:46:32;100849.53;;;27.05;34.87
28935;BME280;16044;52.726;-2.108;2023-06-14T12:49:04;100859.31;;;27.08;34.13
28935;BME280;16044;52.726;-2.108;2023-06-14T12:51:34;100865.13;;;27.06;33.54
28935;BME280;16044;52.726;-2.108;2023-06-14T12:54:10;100845.94;;;27.04;33.99
28935;BME280;16044;52.726;-2.108;2023-06-14T12:56:54;100843.72;;;27.01;34.24
28935;BME280;16044;52.726;-2.108;2023-06-14T12:59:25;100855.97;;;27.00;32.93
28935;BME280;16044;52.726;-2.108;2023-06-14T13:02:09;100852.06;;;27.12;34.17
28935;BME280;16044;52.726;-2.108;2023-06-14T13:04:42;100862.63;;;27.10;34.50
28935;BME280;16044;52.726;-2.108;2023-06-14T13:07:13;100863.19;;;27.07;34.64
28935;BME280;16044;52.726;-2.108;2023-06-14T13:09:46;100859.84;;;27.04;34.91
28935;BME280;16044;52.726;-2.108;2023-06-14T13:12:17;100871.25;;;27.13;35.26
28935;BME280;16044;52.726;-2.108;2023-06-14T13:14:48;100851.50;;;27.15;35.19